Wetterdaten: Woche 01.08.11 - 07.08.11 (KW31)
Datum Zeit Temperatur Luftfeuchte Luftdruck Niederschlag Windrichtung Sonnenschein Solar Wind
01.08.2011 00:00 11,6 C 92 % 1014,7 hPa 0,0 l/m N-NO 0,00 h 0 W/m 6,3 km/h (2 Bft)
01.08.2011 01:00 11,2 C 93 % 1014,6 hPa 0,0 l/m N-NO 0,00 h 0 W/m 6,3 km/h (2 Bft)
01.08.2011 02:00 10,8 C 94 % 1014,4 hPa 0,0 l/m N-NO 0,00 h 0 W/m 4,1 km/h (1 Bft)
01.08.2011 03:00 10,3 C 95 % 1014,3 hPa 0,0 l/m N-NO 0,00 h 0 W/m 5,3 km/h (1 Bft)
01.08.2011 04:00 10,0 C 96 % 1014,0 hPa 0,0 l/m N-NO 0,00 h 0 W/m 5,7 km/h (1 Bft)
01.08.2011 05:00 9,6 C 97 % 1013,8 hPa 0,0 l/m N-NO 0,00 h 0 W/m 4,3 km/h (1 Bft)
01.08.2011 06:00 10,0 C 98 % 1014,1 hPa 0,0 l/m N-NO 0,00 h 13 W/m 4,0 km/h (1 Bft)
01.08.2011 07:00 10,6 C 98 % 1014,2 hPa 0,0 l/m N-NO 0,00 h 40 W/m 6,0 km/h (2 Bft)
01.08.2011 08:00 11,6 C 96 % 1014,3 hPa 0,0 l/m NO 0,00 h 66 W/m 8,2 km/h (2 Bft)
01.08.2011 09:00 12,2 C 94 % 1014,4 hPa 0,0 l/m O-NO 0,00 h 78 W/m 7,4 km/h (2 Bft)
01.08.2011 10:00 12,8 C 92 % 1014,4 hPa 0,0 l/m O-NO 0,00 h 125 W/m 9,7 km/h (2 Bft)
01.08.2011 11:00 13,6 C 90 % 1014,6 hPa 0,0 l/m O-NO 0,00 h 184 W/m 10,5 km/h (2 Bft)
01.08.2011 12:00 14,8 C 86 % 1014,5 hPa 0,0 l/m NO 0,00 h 266 W/m 11,8 km/h (2 Bft)
01.08.2011 13:00 17,1 C 79 % 1014,3 hPa 0,0 l/m NO 0,50 h 601 W/m 12,0 km/h (2 Bft)
01.08.2011 14:00 19,3 C 72 % 1013,9 hPa 0,0 l/m NO 1,00 h 880 W/m 12,9 km/h (3 Bft)
01.08.2011 15:00 20,3 C 67 % 1013,6 hPa 0,0 l/m NO 0,83 h 695 W/m 14,0 km/h (3 Bft)
01.08.2011 16:00 21,2 C 62 % 1013,3 hPa 0,0 l/m O-SO 1,00 h 697 W/m 15,0 km/h (3 Bft)
01.08.2011 17:00 21,2 C 61 % 1013,3 hPa 0,0 l/m O 1,00 h 549 W/m 14,1 km/h (3 Bft)
01.08.2011 18:00 21,1 C 60 % 1013,3 hPa 0,0 l/m O-SO 1,00 h 380 W/m 13,3 km/h (3 Bft)
01.08.2011 19:00 20,0 C 64 % 1013,3 hPa 0,0 l/m O 1,00 h 185 W/m 12,3 km/h (3 Bft)
01.08.2011 20:00 18,3 C 73 % 1013,8 hPa 0,0 l/m O 0,17 h 23 W/m 6,4 km/h (2 Bft)
01.08.2011 21:00 15,1 C 87 % 1014,4 hPa 0,0 l/m N 0,00 h 0 W/m 1,3 km/h (1 Bft)
01.08.2011 22:00 14,1 C 91 % 1014,6 hPa 0,0 l/m N 0,00 h 0 W/m 2,7 km/h (1 Bft)
01.08.2011 23:00 13,6 C 93 % 1014,7 hPa 0,0 l/m N 0,00 h 0 W/m 1,7 km/h (1 Bft)
02.08.2011 00:00 13,0 C 94 % 1014,9 hPa 0,0 l/m N 0,00 h 0 W/m 2,4 km/h (1 Bft)
02.08.2011 01:00 12,8 C 95 % 1015,2 hPa 0,0 l/m N 0,00 h 0 W/m 2,5 km/h (1 Bft)
02.08.2011 02:00 12,4 C 96 % 1015,1 hPa 0,0 l/m N-NO 0,00 h 0 W/m 3,7 km/h (1 Bft)
02.08.2011 03:00 12,1 C 97 % 1014,9 hPa 0,0 l/m N 0,00 h 0 W/m 3,7 km/h (1 Bft)
02.08.2011 04:00 11,7 C 97 % 1014,7 hPa 0,0 l/m N 0,00 h 0 W/m 5,2 km/h (1 Bft)
02.08.2011 05:00 11,3 C 97 % 1014,7 hPa 0,0 l/m N 0,00 h 0 W/m 2,5 km/h (1 Bft)
02.08.2011 06:00 10,8 C 98 % 1014,6 hPa 0,0 l/m N 0,08 h 23 W/m 3,6 km/h (1 Bft)
02.08.2011 07:00 11,0 C 98 % 1014,8 hPa 0,2 l/m N 0,00 h 96 W/m 5,5 km/h (1 Bft)
02.08.2011 08:00 12,3 C 98 % 1015,3 hPa 0,0 l/m N 0,08 h 145 W/m 5,3 km/h (1 Bft)
02.08.2011 09:00 14,2 C 96 % 1015,4 hPa 0,0 l/m N 0,33 h 310 W/m 6,5 km/h (2 Bft)
02.08.2011 10:00 17,6 C 86 % 1015,4 hPa 0,0 l/m N-NO 1,00 h 640 W/m 7,1 km/h (2 Bft)
02.08.2011 11:00 20,6 C 74 % 1015,4 hPa 0,0 l/m N-NO 1,00 h 774 W/m 6,3 km/h (2 Bft)
02.08.2011 12:00 23,1 C 62 % 1015,6 hPa 0,0 l/m SO 1,00 h 865 W/m 6,8 km/h (2 Bft)
02.08.2011 13:00 24,9 C 49 % 1015,4 hPa 0,0 l/m O-SO 1,00 h 900 W/m 6,4 km/h (2 Bft)
02.08.2011 14:00 26,1 C 50 % 1015,1 hPa 0,0 l/m SO 1,00 h 868 W/m 8,3 km/h (2 Bft)
02.08.2011 15:00 26,7 C 47 % 1014,9 hPa 0,0 l/m O-SO 1,00 h 797 W/m 9,8 km/h (2 Bft)
02.08.2011 16:00 27,2 C 41 % 1014,4 hPa 0,0 l/m S 1,00 h 687 W/m 10,3 km/h (2 Bft)
02.08.2011 17:00 27,1 C 39 % 1013,9 hPa 0,0 l/m SO 1,00 h 539 W/m 8,4 km/h (2 Bft)
02.08.2011 18:00 26,7 C 39 % 1013,6 hPa 0,0 l/m S-SW 0,83 h 315 W/m 4,5 km/h (1 Bft)
02.08.2011 19:00 23,9 C 60 % 1013,3 hPa 0,0 l/m N 0,92 h 165 W/m 1,2 km/h (1 Bft)
02.08.2011 20:00 20,8 C 70 % 1013,5 hPa 0,0 l/m N 0,08 h 23 W/m 1,2 km/h (1 Bft)
02.08.2011 21:00 18,5 C 78 % 1013,8 hPa 0,0 l/m N 0,00 h 0 W/m 1,1 km/h (0 Bft)
02.08.2011 22:00 17,5 C 82 % 1013,8 hPa 0,0 l/m N 0,00 h 0 W/m 1,5 km/h (1 Bft)
02.08.2011 23:00 17,0 C 83 % 1013,7 hPa 0,0 l/m W-SW 0,00 h 0 W/m 4,3 km/h (1 Bft)
03.08.2011 00:00 16,7 C 82 % 1013,7 hPa 0,0 l/m W-NW 0,00 h 0 W/m 4,4 km/h (1 Bft)
03.08.2011 01:00 15,9 C 85 % 1013,8 hPa 0,0 l/m W-NW 0,00 h 0 W/m 4,4 km/h (1 Bft)
03.08.2011 02:00 15,1 C 88 % 1014,0 hPa 0,0 l/m N 0,00 h 0 W/m 3,5 km/h (1 Bft)
03.08.2011 03:00 14,4 C 91 % 1014,0 hPa 0,0 l/m N 0,00 h 0 W/m 1,7 km/h (1 Bft)
03.08.2011 04:00 13,8 C 93 % 1013,9 hPa 0,0 l/m W-NW 0,00 h 0 W/m 0,9 km/h (0 Bft)
03.08.2011 05:00 13,1 C 95 % 1014,2 hPa 0,0 l/m N 0,00 h 0 W/m 0,0 km/h (0 Bft)
03.08.2011 06:00 13,2 C 95 % 1014,5 hPa 0,0 l/m N 0,00 h 23 W/m 0,0 km/h (0 Bft)
03.08.2011 07:00 14,1 C 93 % 1014,8 hPa 0,0 l/m N 0,50 h 143 W/m 0,0 km/h (0 Bft)
03.08.2011 08:00 16,4 C 89 % 1014,9 hPa 0,0 l/m N 0,75 h 235 W/m 0,0 km/h (0 Bft)
03.08.2011 09:00 19,5 C 80 % 1015,0 hPa 0,0 l/m S 0,58 h 364 W/m 7,8 km/h (2 Bft)
03.08.2011 10:00 21,0 C 75 % 1015,0 hPa 0,0 l/m S-SW 0,17 h 316 W/m 9,3 km/h (2 Bft)
03.08.2011 11:00 20,5 C 80 % 1015,4 hPa 0,0 l/m S-SW 0,00 h 45 W/m 8,6 km/h (2 Bft)
03.08.2011 12:00 17,9 C 92 % 1015,6 hPa 4,4 l/m SW 0,00 h 11 W/m 5,1 km/h (1 Bft)
03.08.2011 13:00 17,2 C 96 % 1015,4 hPa 2,6 l/m S-SW 0,00 h 21 W/m 7,2 km/h (2 Bft)
03.08.2011 14:00 17,2 C 97 % 1015,6 hPa 0,6 l/m SW 0,00 h 164 W/m 12,3 km/h (3 Bft)
03.08.2011 15:00 17,9 C 95 % 1015,4 hPa 0,0 l/m S-SW 0,00 h 125 W/m 12,0 km/h (2 Bft)
03.08.2011 16:00 17,8 C 96 % 1015,3 hPa 0,4 l/m S 0,00 h 106 W/m 8,2 km/h (2 Bft)
03.08.2011 17:00 18,4 C 94 % 1015,2 hPa 0,0 l/m S-SW 0,25 h 201 W/m 11,4 km/h (2 Bft)
03.08.2011 18:00 18,3 C 93 % 1014,9 hPa 0,0 l/m S-SW 0,00 h 90 W/m 7,5 km/h (2 Bft)
03.08.2011 19:00 18,0 C 92 % 1015,0 hPa 0,0 l/m SW 0,00 h 36 W/m 4,4 km/h (1 Bft)
03.08.2011 20:00 17,7 C 92 % 1015,2 hPa 0,0 l/m S-SW 0,00 h 17 W/m 3,6 km/h (1 Bft)
03.08.2011 21:00 17,2 C 94 % 1015,5 hPa 0,0 l/m N 0,00 h 0 W/m 1,7 km/h (1 Bft)
03.08.2011 22:00 17,0 C 96 % 1015,7 hPa 0,0 l/m SW 0,00 h 0 W/m 3,9 km/h (1 Bft)
03.08.2011 23:00 16,8 C 95 % 1015,7 hPa 0,0 l/m SW 0,00 h 0 W/m 4,3 km/h (1 Bft)
04.08.2011 00:00 16,6 C 95 % 1015,5 hPa 0,0 l/m SW 0,00 h 0 W/m 8,4 km/h (2 Bft)
04.08.2011 01:00 16,3 C 97 % 1015,6 hPa 0,0 l/m SW 0,00 h 0 W/m 10,6 km/h (2 Bft)
04.08.2011 02:00 16,2 C 98 % 1015,5 hPa 0,0 l/m SW 0,00 h 0 W/m 9,9 km/h (2 Bft)
04.08.2011 03:00 16,4 C 98 % 1015,5 hPa 0,0 l/m SW 0,00 h 0 W/m 7,9 km/h (2 Bft)
04.08.2011 04:00 16,5 C 97 % 1015,3 hPa 0,0 l/m SW 0,00 h 0 W/m 7,6 km/h (2 Bft)
04.08.2011 05:00 16,6 C 96 % 1015,4 hPa 0,0 l/m W 0,00 h 0 W/m 9,4 km/h (2 Bft)
04.08.2011 06:00 16,6 C 97 % 1015,6 hPa 0,0 l/m W-SW 0,00 h 13 W/m 9,5 km/h (2 Bft)
04.08.2011 07:00 16,7 C 96 % 1015,8 hPa 0,0 l/m W-SW 0,00 h 40 W/m 10,7 km/h (2 Bft)
04.08.2011 08:00 17,6 C 94 % 1016,1 hPa 0,0 l/m SW 0,50 h 240 W/m 10,1 km/h (2 Bft)
04.08.2011 09:00 18,9 C 88 % 1016,0 hPa 0,0 l/m W 0,42 h 277 W/m 10,8 km/h (2 Bft)
04.08.2011 10:00 20,6 C 79 % 1015,8 hPa 0,0 l/m W 0,67 h 550 W/m 14,2 km/h (3 Bft)
04.08.2011 11:00 21,8 C 73 % 1015,4 hPa 0,0 l/m W 0,83 h 667 W/m 12,8 km/h (3 Bft)
04.08.2011 12:00 22,4 C 71 % 1015,1 hPa 0,0 l/m SW 0,25 h 408 W/m 12,1 km/h (2 Bft)
04.08.2011 13:00 23,2 C 68 % 1014,5 hPa 0,0 l/m W-SW 0,25 h 450 W/m 14,2 km/h (3 Bft)
04.08.2011 14:00 23,3 C 67 % 1014,1 hPa 0,0 l/m W-SW 0,25 h 439 W/m 13,4 km/h (3 Bft)
04.08.2011 15:00 22,6 C 71 % 1014,0 hPa 0,2 l/m SW 0,17 h 237 W/m 13,3 km/h (3 Bft)
04.08.2011 16:00 20,6 C 85 % 1013,7 hPa 0,0 l/m W-SW 0,00 h 129 W/m 2,5 km/h (1 Bft)
04.08.2011 17:00 21,1 C 84 % 1013,3 hPa 0,0 l/m N 0,00 h 137 W/m 1,5 km/h (1 Bft)
04.08.2011 18:00 20,8 C 89 % 1013,2 hPa 0,0 l/m N 0,00 h 56 W/m 0,9 km/h (0 Bft)
04.08.2011 19:00 21,6 C 83 % 1013,0 hPa 0,0 l/m N 0,42 h 131 W/m 0,8 km/h (0 Bft)
04.08.2011 20:00 19,2 C 91 % 1012,9 hPa 0,0 l/m N 0,00 h 18 W/m 0,9 km/h (0 Bft)
04.08.2011 21:00 17,2 C 92 % 1013,2 hPa 0,0 l/m N 0,00 h 0 W/m 0,3 km/h (0 Bft)
04.08.2011 22:00 16,1 C 94 % 1013,4 hPa 0,0 l/m N 0,00 h 0 W/m 0,0 km/h (0 Bft)
04.08.2011 23:00 15,6 C 95 % 1013,5 hPa 0,0 l/m N 0,00 h 0 W/m 0,0 km/h (0 Bft)
05.08.2011 00:00 15,2 C 97 % 1013,5 hPa 0,0 l/m N 0,00 h 0 W/m 0,0 km/h (0 Bft)
05.08.2011 01:00 15,4 C 97 % 1013,3 hPa 0,0 l/m N 0,00 h 0 W/m 0,0 km/h (0 Bft)
05.08.2011 02:00 15,4 C 96 % 1013,0 hPa 0,0 l/m N 0,00 h 0 W/m 0,0 km/h (0 Bft)
05.08.2011 03:00 15,7 C 97 % 1012,9 hPa 0,0 l/m N 0,00 h 0 W/m 0,0 km/h (0 Bft)
05.08.2011 04:00 15,9 C 97 % 1013,0 hPa 0,0 l/m N 0,00 h 0 W/m 1,2 km/h (1 Bft)
05.08.2011 05:00 16,2 C 97 % 1013,2 hPa 0,0 l/m W-SW 0,00 h 0 W/m 2,4 km/h (1 Bft)
05.08.2011 06:00 16,4 C 98 % 1013,3 hPa 0,2 l/m S-SW 0,00 h 15 W/m 7,5 km/h (2 Bft)
05.08.2011 07:00 16,7 C 98 % 1013,4 hPa 0,0 l/m S-SW 0,00 h 44 W/m 9,7 km/h (2 Bft)
05.08.2011 08:00 17,7 C 97 % 1013,5 hPa 0,0 l/m S-SW 0,00 h 115 W/m 6,8 km/h (2 Bft)
05.08.2011 09:00 19,5 C 91 % 1013,5 hPa 0,0 l/m S-SW 0,42 h 258 W/m 8,4 km/h (2 Bft)
05.08.2011 10:00 21,0 C 84 % 1013,4 hPa 0,0 l/m W-SW 0,67 h 535 W/m 10,5 km/h (2 Bft)
05.08.2011 11:00 22,5 C 77 % 1013,1 hPa 0,0 l/m S-SO 0,58 h 545 W/m 12,4 km/h (3 Bft)
05.08.2011 12:00 23,5 C 70 % 1012,8 hPa 0,0 l/m S-SW 0,42 h 499 W/m 13,2 km/h (3 Bft)
05.08.2011 13:00 24,3 C 65 % 1012,4 hPa 0,0 l/m S 0,75 h 534 W/m 11,7 km/h (2 Bft)
05.08.2011 14:00 24,4 C 65 % 1011,9 hPa 0,0 l/m W-SW 0,00 h 296 W/m 10,3 km/h (2 Bft)
05.08.2011 15:00 23,3 C 70 % 1011,6 hPa 0,0 l/m N-NO 0,00 h 198 W/m 11,9 km/h (2 Bft)
05.08.2011 16:00 22,8 C 74 % 1011,1 hPa 0,0 l/m N-NO 0,42 h 344 W/m 10,6 km/h (2 Bft)
05.08.2011 17:00 21,4 C 83 % 1010,9 hPa 1,0 l/m N-NO 0,00 h 48 W/m 4,8 km/h (1 Bft)
05.08.2011 18:00 20,2 C 93 % 1010,7 hPa 0,4 l/m N-NW 0,00 h 111 W/m 4,0 km/h (1 Bft)
05.08.2011 19:00 19,6 C 93 % 1011,0 hPa 0,0 l/m N 0,00 h 36 W/m 3,9 km/h (1 Bft)
05.08.2011 20:00 19,0 C 95 % 1011,3 hPa 0,0 l/m N 0,00 h 10 W/m 2,4 km/h (1 Bft)
05.08.2011 21:00 18,5 C 96 % 1011,9 hPa 1,2 l/m N 0,00 h 0 W/m 6,6 km/h (2 Bft)
05.08.2011 22:00 17,4 C 96 % 1012,1 hPa 6,4 l/m NW 0,00 h 0 W/m 6,3 km/h (2 Bft)
05.08.2011 23:00 16,8 C 98 % 1011,7 hPa 1,0 l/m W 0,00 h 0 W/m 2,8 km/h (1 Bft)
06.08.2011 00:00 16,3 C 98 % 1011,5 hPa 0,0 l/m S-SW 0,00 h 0 W/m 11,2 km/h (2 Bft)
06.08.2011 01:00 15,8 C 99 % 1011,0 hPa 0,0 l/m S-SW 0,00 h 0 W/m 6,6 km/h (2 Bft)
06.08.2011 02:00 15,5 C 99 % 1010,5 hPa 0,0 l/m N 0,00 h 0 W/m 1,3 km/h (1 Bft)
06.08.2011 03:00 15,0 C 99 % 1010,2 hPa 0,0 l/m SW 0,00 h 0 W/m 2,4 km/h (1 Bft)
06.08.2011 04:00 14,8 C 99 % 1010,0 hPa 0,0 l/m SW 0,00 h 0 W/m 3,1 km/h (1 Bft)
06.08.2011 05:00 14,4 C 99 % 1009,6 hPa 0,0 l/m N 0,00 h 0 W/m 1,7 km/h (1 Bft)
06.08.2011 06:00 14,9 C 100 % 1009,3 hPa 0,0 l/m SW 0,00 h 10 W/m 2,7 km/h (1 Bft)
06.08.2011 07:00 15,0 C 100 % 1009,1 hPa 0,0 l/m SW 0,00 h 42 W/m 6,3 km/h (2 Bft)
06.08.2011 08:00 15,5 C 100 % 1008,8 hPa 0,2 l/m SW 0,00 h 86 W/m 4,8 km/h (1 Bft)
06.08.2011 09:00 16,3 C 100 % 1008,6 hPa 0,0 l/m SW 0,08 h 171 W/m 4,7 km/h (1 Bft)
06.08.2011 10:00 18,6 C 92 % 1008,0 hPa 0,0 l/m S-SW 0,83 h 509 W/m 5,5 km/h (1 Bft)
06.08.2011 11:00 19,8 C 86 % 1007,7 hPa 0,0 l/m S 0,58 h 503 W/m 4,1 km/h (1 Bft)
06.08.2011 12:00 22,1 C 78 % 1006,8 hPa 0,0 l/m S-SO 0,75 h 665 W/m 5,9 km/h (2 Bft)
06.08.2011 13:00 23,7 C 72 % 1006,1 hPa 0,0 l/m S 0,67 h 666 W/m 7,4 km/h (2 Bft)
06.08.2011 14:00 24,5 C 69 % 1005,6 hPa 0,0 l/m SW 0,42 h 413 W/m 7,6 km/h (2 Bft)
06.08.2011 15:00 24,0 C 72 % 1005,2 hPa 0,0 l/m W 0,00 h 200 W/m 7,2 km/h (2 Bft)
06.08.2011 16:00 23,9 C 70 % 1004,6 hPa 0,0 l/m W 0,00 h 206 W/m 6,0 km/h (2 Bft)
06.08.2011 17:00 24,4 C 63 % 1004,0 hPa 0,0 l/m W 0,50 h 315 W/m 6,6 km/h (2 Bft)
06.08.2011 18:00 23,0 C 71 % 1004,0 hPa 0,0 l/m W-SW 0,00 h 72 W/m 5,1 km/h (1 Bft)
06.08.2011 19:00 21,8 C 74 % 1004,1 hPa 0,0 l/m W-SW 0,00 h 27 W/m 5,2 km/h (1 Bft)
06.08.2011 20:00 20,1 C 86 % 1004,3 hPa 0,0 l/m W-SW 0,00 h 7 W/m 2,9 km/h (1 Bft)
06.08.2011 21:00 19,4 C 92 % 1004,2 hPa 0,2 l/m SW 0,00 h 0 W/m 5,9 km/h (2 Bft)
06.08.2011 22:00 18,9 C 92 % 1003,6 hPa 0,0 l/m SW 0,00 h 0 W/m 4,5 km/h (1 Bft)
06.08.2011 23:00 18,4 C 94 % 1003,4 hPa 0,0 l/m N 0,00 h 0 W/m 1,3 km/h (1 Bft)
07.08.2011 00:00 18,0 C 95 % 1003,3 hPa 0,0 l/m N 0,00 h 0 W/m 2,5 km/h (1 Bft)
07.08.2011 01:00 18,0 C 96 % 1003,1 hPa 0,0 l/m SW 0,00 h 0 W/m 5,1 km/h (1 Bft)
07.08.2011 02:00 18,4 C 91 % 1004,1 hPa 0,4 l/m W 0,00 h 0 W/m 10,6 km/h (2 Bft)
07.08.2011 03:00 17,6 C 93 % 1004,1 hPa 1,2 l/m SW 0,00 h 0 W/m 16,0 km/h (3 Bft)
07.08.2011 04:00 17,1 C 97 % 1003,9 hPa 0,0 l/m SW 0,00 h 0 W/m 14,0 km/h (3 Bft)
07.08.2011 05:00 17,1 C 98 % 1004,0 hPa 0,2 l/m SW 0,00 h 0 W/m 12,4 km/h (3 Bft)
07.08.2011 06:00 17,2 C 98 % 1004,7 hPa 0,4 l/m SW 0,00 h 6 W/m 10,3 km/h (2 Bft)
07.08.2011 07:00 16,9 C 98 % 1005,0 hPa 0,2 l/m SW 0,00 h 16 W/m 11,4 km/h (2 Bft)
07.08.2011 08:00 16,6 C 92 % 1005,9 hPa 0,2 l/m W-NW 0,00 h 60 W/m 7,0 km/h (2 Bft)
07.08.2011 09:00 15,3 C 93 % 1006,4 hPa 1,6 l/m W-SW 0,00 h 32 W/m 7,6 km/h (2 Bft)
07.08.2011 10:00 15,0 C 97 % 1007,4 hPa 3,4 l/m SW 0,00 h 24 W/m 7,9 km/h (2 Bft)
07.08.2011 11:00 15,1 C 98 % 1007,6 hPa 0,8 l/m SW 0,00 h 87 W/m 4,5 km/h (1 Bft)
07.08.2011 12:00 16,4 C 97 % 1007,4 hPa 0,0 l/m S-SW 0,00 h 264 W/m 17,8 km/h (3 Bft)
07.08.2011 13:00 18,6 C 90 % 1007,2 hPa 0,0 l/m SW 0,58 h 659 W/m 18,2 km/h (3 Bft)
07.08.2011 14:00 19,7 C 86 % 1006,7 hPa 0,0 l/m S 0,67 h 573 W/m 19,0 km/h (3 Bft)
07.08.2011 15:00 19,4 C 84 % 1006,3 hPa 0,0 l/m SW 0,00 h 110 W/m 14,4 km/h (3 Bft)
07.08.2011 16:00 17,8 C 88 % 1006,8 hPa 0,0 l/m N-NW 0,00 h 96 W/m 12,2 km/h (2 Bft)
07.08.2011 17:00 17,7 C 89 % 1006,8 hPa 0,0 l/m NO 0,00 h 131 W/m 11,8 km/h (2 Bft)
07.08.2011 18:00 17,8 C 86 % 1007,0 hPa 0,0 l/m N-NO 0,00 h 69 W/m 6,4 km/h (2 Bft)
07.08.2011 19:00 17,2 C 90 % 1006,8 hPa 0,8 l/m N-NO 0,00 h 13 W/m 4,9 km/h (1 Bft)
07.08.2011 20:00 15,9 C 95 % 1007,3 hPa 7,6 l/m NO 0,00 h 7 W/m 2,4 km/h (1 Bft)
07.08.2011 21:00 15,3 C 97 % 1007,6 hPa 0,6 l/m N 0,00 h 0 W/m 1,6 km/h (1 Bft)
07.08.2011 22:00 15,2 C 98 % 1007,6 hPa 0,2 l/m N 0,00 h 0 W/m 0,5 km/h (0 Bft)
07.08.2011 23:00 15,0 C 98 % 1007,5 hPa 0,0 l/m NO 0,00 h 0 W/m 4,3 km/h (1 Bft)
Min-Datum _ 01.08.11 02.08.11 07.08.11 - - - - 01.08.11
_ Min-Zeit 05:55 18:05 01:50 - - - - 21:00
Minimum _ 9,3 C 35 % 1002,8 hPa - - - - 0,0 km/h (0 Bft)
Max-Datum _ 02.08.11 06.08.11 04.08.11 07.08.11 - 01.08.11 07.08.11 07.08.11
_ Max-Zeit 16:25 05:50 08:40 20:50 - 13:05 13:10 12:45
Maximum _ 27,6 C 100 % 1016,2 hPa 7,6 l/m - 0,08 h 1118 W/m 27,4 km/h
S-SW (4 Bft)
Durchschnitt _ 17,7 C 87 % 1012,0 hPa #36,6 l/m SW #31:10 h 259 W/m 6,6 km/h (2 Bft)